sensor_id;sensor_type;location;lat;lon;timestamp;temperature;humidity
40996;DHT22;26723;57.478;12.066;2022-08-01T00:02:35;18.20;99.90
40996;DHT22;26723;57.478;12.066;2022-08-01T00:05:54;18.20;99.90
40996;DHT22;26723;57.478;12.066;2022-08-01T00:09:35;18.20;99.90
40996;DHT22;26723;57.478;12.066;2022-08-01T00:13:12;18.30;99.90
40996;DHT22;26723;57.478;12.066;2022-08-01T00:16:48;18.30;99.90
40996;DHT22;26723;57.478;12.066;2022-08-01T00:20:34;18.20;99.90
40996;DHT22;26723;57.478;12.066;2022-08-01T00:23:50;18.20;99.90
40996;DHT22;26723;57.478;12.066;2022-08-01T00:27:04;18.20;99.90
40996;DHT22;26723;57.478;12.066;2022-08-01T00:31:02;18.20;99.90
40996;DHT22;26723;57.478;12.066;2022-08-01T00:34:41;18.20;99.90
40996;DHT22;26723;57.478;12.066;2022-08-01T00:38:31;18.20;99.90
40996;DHT22;26723;57.478;12.066;2022-08-01T00:41:45;18.20;99.90
40996;DHT22;26723;57.478;12.066;2022-08-01T00:45:14;18.20;99.90
40996;DHT22;26723;57.478;12.066;2022-08-01T00:48:45;18.20;99.90
40996;DHT22;26723;57.478;12.066;2022-08-01T00:52:26;18.20;99.90
40996;DHT22;26723;57.478;12.066;2022-08-01T01:00:25;18.20;99.90
40996;DHT22;26723;57.478;12.066;2022-08-01T01:08:46;18.20;99.90
40996;DHT22;26723;57.478;12.066;2022-08-01T01:12:31;18.20;99.90
40996;DHT22;26723;57.478;12.066;2022-08-01T01:20:37;18.20;99.90
40996;DHT22;26723;57.478;12.066;2022-08-01T01:28:02;18.10;99.90
40996;DHT22;26723;57.478;12.066;2022-08-01T01:31:55;18.10;99.90
40996;DHT22;26723;57.478;12.066;2022-08-01T01:35:53;18.10;99.90
40996;DHT22;26723;57.478;12.066;2022-08-01T01:39:49;18.20;99.90
40996;DHT22;26723;57.478;12.066;2022-08-01T01:47:23;18.10;99.90
40996;DHT22;26723;57.478;12.066;2022-08-01T01:51:20;18.10;99.90
40996;DHT22;26723;57.478;12.066;2022-08-01T01:55:06;18.10;99.90
40996;DHT22;26723;57.478;12.066;2022-08-01T01:58:29;18.10;99.90
40996;DHT22;26723;57.478;12.066;2022-08-01T02:06:02;18.10;99.90
40996;DHT22;26723;57.478;12.066;2022-08-01T02:09:32;18.10;99.90
40996;DHT22;26723;57.478;12.066;2022-08-01T02:13:31;18.10;99.90
40996;DHT22;26723;57.478;12.066;2022-08-01T02:17:45;18.10;99.90
40996;DHT22;26723;57.478;12.066;2022-08-01T02:21:38;18.10;99.90
40996;DHT22;26723;57.478;12.066;2022-08-01T02:25:03;18.20;99.90
40996;DHT22;26723;57.478;12.066;2022-08-01T02:28:30;18.20;99.90
40996;DHT22;26723;57.478;12.066;2022-08-01T02:32:30;18.20;99.90
40996;DHT22;26723;57.478;12.066;2022-08-01T02:40:25;18.20;99.90
40996;DHT22;26723;57.478;12.066;2022-08-01T02:52:57;18.20;99.90
40996;DHT22;26723;57.478;12.066;2022-08-01T02:56:18;18.20;99.90
40996;DHT22;26723;57.478;12.066;2022-08-01T03:00:01;18.20;99.90
40996;DHT22;26723;57.478;12.066;2022-08-01T03:03:21;18.20;99.90
40996;DHT22;26723;57.478;12.066;2022-08-01T03:07:12;18.20;99.90
40996;DHT22;26723;57.478;12.066;2022-08-01T03:10:41;18.30;99.90
40996;DHT22;26723;57.478;12.066;2022-08-01T03:14:41;18.30;99.90
40996;DHT22;26723;57.478;12.066;2022-08-01T03:18:40;18.20;99.90
40996;DHT22;26723;57.478;12.066;2022-08-01T03:26:39;18.20;99.90
40996;DHT22;26723;57.478;12.066;2022-08-01T03:30:06;18.20;99.90
40996;DHT22;26723;57.478;12.066;2022-08-01T03:34:23;18.20;99.90
40996;DHT22;26723;57.478;12.066;2022-08-01T03:38:10;18.20;99.90
40996;DHT22;26723;57.478;12.066;2022-08-01T03:41:58;18.10;99.90
40996;DHT22;26723;57.478;12.066;2022-08-01T03:45:45;18.10;99.90
40996;DHT22;26723;57.478;12.066;2022-08-01T03:53:28;18.10;99.90
40996;DHT22;26723;57.478;12.066;2022-08-01T03:57:29;18.10;99.90
40996;DHT22;26723;57.478;12.066;2022-08-01T04:00:44;18.00;99.90
40996;DHT22;26723;57.478;12.066;2022-08-01T04:04:09;18.00;99.90
40996;DHT22;26723;57.478;12.066;2022-08-01T04:07:31;18.00;99.90
40996;DHT22;26723;57.478;12.066;2022-08-01T04:11:26;18.00;99.90
40996;DHT22;26723;57.478;12.066;2022-08-01T04:15:05;18.00;99.90
40996;DHT22;26723;57.478;12.066;2022-08-01T04:22:16;18.00;99.90
40996;DHT22;26723;57.478;12.066;2022-08-01T04:25:44;18.00;99.90
40996;DHT22;26723;57.478;12.066;2022-08-01T04:29:19;18.00;99.90
40996;DHT22;26723;57.478;12.066;2022-08-01T04:32:37;18.00;99.90
40996;DHT22;26723;57.478;12.066;2022-08-01T04:36:00;18.00;99.90
40996;DHT22;26723;57.478;12.066;2022-08-01T04:39:28;18.00;99.90
40996;DHT22;26723;57.478;12.066;2022-08-01T04:43:05;18.00;99.90
40996;DHT22;26723;57.478;12.066;2022-08-01T04:47:18;18.00;99.90
40996;DHT22;26723;57.478;12.066;2022-08-01T04:50:42;18.00;99.90
40996;DHT22;26723;57.478;12.066;2022-08-01T04:59:04;18.10;99.90
40996;DHT22;26723;57.478;12.066;2022-08-01T05:03:04;18.10;99.90
40996;DHT22;26723;57.478;12.066;2022-08-01T05:06:56;18.10;99.90
40996;DHT22;26723;57.478;12.066;2022-08-01T05:10:57;18.20;99.90
40996;DHT22;26723;57.478;12.066;2022-08-01T05:14:48;18.20;99.90
40996;DHT22;26723;57.478;12.066;2022-08-01T05:18:48;18.30;99.90
40996;DHT22;26723;57.478;12.066;2022-08-01T05:25:40;18.30;99.90
40996;DHT22;26723;57.478;12.066;2022-08-01T05:29:29;18.30;99.90
40996;DHT22;26723;57.478;12.066;2022-08-01T05:33:33;18.30;99.90
40996;DHT22;26723;57.478;12.066;2022-08-01T05:36:59;18.30;99.90
40996;DHT22;26723;57.478;12.066;2022-08-01T05:40:22;18.30;99.90
40996;DHT22;26723;57.478;12.066;2022-08-01T05:43:48;18.30;99.90
40996;DHT22;26723;57.478;12.066;2022-08-01T05:47:19;18.30;99.90
40996;DHT22;26723;57.478;12.066;2022-08-01T05:50:49;18.30;99.90
40996;DHT22;26723;57.478;12.066;2022-08-01T05:54:10;18.20;99.90
40996;DHT22;26723;57.478;12.066;2022-08-01T05:57:19;18.20;99.90
40996;DHT22;26723;57.478;12.066;2022-08-01T06:00:51;18.20;99.90
40996;DHT22;26723;57.478;12.066;2022-08-01T06:04:06;18.30;99.90
40996;DHT22;26723;57.478;12.066;2022-08-01T06:07:21;18.30;99.90
40996;DHT22;26723;57.478;12.066;2022-08-01T06:10:39;18.20;99.90
40996;DHT22;26723;57.478;12.066;2022-08-01T06:13:54;18.30;99.90
40996;DHT22;26723;57.478;12.066;2022-08-01T06:17:34;18.30;99.90
40996;DHT22;26723;57.478;12.066;2022-08-01T06:20:45;18.30;99.90
40996;DHT22;26723;57.478;12.066;2022-08-01T06:23:58;18.30;99.90
40996;DHT22;26723;57.478;12.066;2022-08-01T06:27:10;18.30;99.90
40996;DHT22;26723;57.478;12.066;2022-08-01T06:30:29;18.40;99.90
40996;DHT22;26723;57.478;12.066;2022-08-01T06:33:39;18.30;99.90
40996;DHT22;26723;57.478;12.066;2022-08-01T06:36:48;18.40;99.90
40996;DHT22;26723;57.478;12.066;2022-08-01T06:40:01;18.50;99.90
40996;DHT22;26723;57.478;12.066;2022-08-01T06:43:23;18.70;99.90
40996;DHT22;26723;57.478;12.066;2022-08-01T06:46:34;18.80;99.90
40996;DHT22;26723;57.478;12.066;2022-08-01T06:49:46;18.80;99.90
40996;DHT22;26723;57.478;12.066;2022-08-01T06:52:55;18.60;99.90
40996;DHT22;26723;57.478;12.066;2022-08-01T06:56:05;18.50;99.90
40996;DHT22;26723;57.478;12.066;2022-08-01T06:59:15;18.30;99.90
40996;DHT22;26723;57.478;12.066;2022-08-01T07:02:24;18.30;99.90
40996;DHT22;26723;57.478;12.066;2022-08-01T07:05:34;18.20;99.90
40996;DHT22;26723;57.478;12.066;2022-08-01T07:08:42;18.20;99.90
40996;DHT22;26723;57.478;12.066;2022-08-01T07:11:51;18.30;99.90
40996;DHT22;26723;57.478;12.066;2022-08-01T07:15:00;18.40;99.90
40996;DHT22;26723;57.478;12.066;2022-08-01T07:18:09;18.30;99.90
40996;DHT22;26723;57.478;12.066;2022-08-01T07:21:18;18.40;99.90
40996;DHT22;26723;57.478;12.066;2022-08-01T07:24:47;18.60;99.90
40996;DHT22;26723;57.478;12.066;2022-08-01T07:28:00;18.60;99.90
40996;DHT22;26723;57.478;12.066;2022-08-01T07:31:08;18.60;99.90
40996;DHT22;26723;57.478;12.066;2022-08-01T07:34:16;18.60;99.90
40996;DHT22;26723;57.478;12.066;2022-08-01T07:37:27;18.50;99.90
40996;DHT22;26723;57.478;12.066;2022-08-01T07:40:55;18.60;99.90
40996;DHT22;26723;57.478;12.066;2022-08-01T07:44:03;18.70;99.90
40996;DHT22;26723;57.478;12.066;2022-08-01T07:47:12;18.80;99.90
40996;DHT22;26723;57.478;12.066;2022-08-01T07:50:20;19.20;99.90
40996;DHT22;26723;57.478;12.066;2022-08-01T07:53:30;19.30;99.90
40996;DHT22;26723;57.478;12.066;2022-08-01T07:56:38;19.10;99.90
40996;DHT22;26723;57.478;12.066;2022-08-01T07:59:47;19.30;99.90
40996;DHT22;26723;57.478;12.066;2022-08-01T08:02:55;19.40;99.90
40996;DHT22;26723;57.478;12.066;2022-08-01T08:06:05;19.50;99.90
40996;DHT22;26723;57.478;12.066;2022-08-01T08:09:15;19.30;99.90
40996;DHT22;26723;57.478;12.066;2022-08-01T08:12:23;19.30;99.90
40996;DHT22;26723;57.478;12.066;2022-08-01T08:15:35;19.40;99.90
40996;DHT22;26723;57.478;12.066;2022-08-01T08:18:44;19.30;99.90
40996;DHT22;26723;57.478;12.066;2022-08-01T08:21:52;19.30;99.90
40996;DHT22;26723;57.478;12.066;2022-08-01T08:25:02;19.40;99.90
40996;DHT22;26723;57.478;12.066;2022-08-01T08:28:13;20.00;99.90
40996;DHT22;26723;57.478;12.066;2022-08-01T08:31:21;21.20;99.90
40996;DHT22;26723;57.478;12.066;2022-08-01T08:34:50;22.40;99.90
40996;DHT22;26723;57.478;12.066;2022-08-01T08:37:58;23.60;99.90
40996;DHT22;26723;57.478;12.066;2022-08-01T08:41:09;24.50;99.90
40996;DHT22;26723;57.478;12.066;2022-08-01T08:44:18;24.40;99.90
40996;DHT22;26723;57.478;12.066;2022-08-01T08:47:28;24.70;99.90
40996;DHT22;26723;57.478;12.066;2022-08-01T08:50:40;24.80;99.90
40996;DHT22;26723;57.478;12.066;2022-08-01T08:53:50;24.80;99.90
40996;DHT22;26723;57.478;12.066;2022-08-01T08:57:01;24.70;99.90
40996;DHT22;26723;57.478;12.066;2022-08-01T09:00:10;25.40;99.90
40996;DHT22;26723;57.478;12.066;2022-08-01T09:03:19;25.50;99.90
40996;DHT22;26723;57.478;12.066;2022-08-01T09:06:27;25.40;99.90
40996;DHT22;26723;57.478;12.066;2022-08-01T09:09:36;25.60;99.90
40996;DHT22;26723;57.478;12.066;2022-08-01T09:13:10;26.30;99.90
40996;DHT22;26723;57.478;12.066;2022-08-01T09:16:19;26.10;99.90
40996;DHT22;26723;57.478;12.066;2022-08-01T09:19:35;26.10;99.90
40996;DHT22;26723;57.478;12.066;2022-08-01T09:22:46;26.20;99.90
40996;DHT22;26723;57.478;12.066;2022-08-01T09:25:55;26.40;99.90
40996;DHT22;26723;57.478;12.066;2022-08-01T09:29:08;26.60;99.90
40996;DHT22;26723;57.478;12.066;2022-08-01T09:32:53;26.70;99.90
40996;DHT22;26723;57.478;12.066;2022-08-01T09:39:54;25.40;99.90
40996;DHT22;26723;57.478;12.066;2022-08-01T09:43:13;25.60;99.90
40996;DHT22;26723;57.478;12.066;2022-08-01T09:46:28;25.70;99.90
40996;DHT22;26723;57.478;12.066;2022-08-01T09:49:59;26.10;99.90
40996;DHT22;26723;57.478;12.066;2022-08-01T09:53:47;26.20;99.90
40996;DHT22;26723;57.478;12.066;2022-08-01T09:57:14;26.00;99.90
40996;DHT22;26723;57.478;12.066;2022-08-01T10:00:29;26.00;99.90
40996;DHT22;26723;57.478;12.066;2022-08-01T10:04:14;26.00;99.90
40996;DHT22;26723;57.478;12.066;2022-08-01T10:07:31;25.90;99.90
40996;DHT22;26723;57.478;12.066;2022-08-01T10:11:07;25.50;99.90
40996;DHT22;26723;57.478;12.066;2022-08-01T10:14:41;25.10;99.90
40996;DHT22;26723;57.478;12.066;2022-08-01T10:18:15;24.70;99.90
40996;DHT22;26723;57.478;12.066;2022-08-01T10:21:34;24.90;99.90
40996;DHT22;26723;57.478;12.066;2022-08-01T10:25:11;25.30;99.90
40996;DHT22;26723;57.478;12.066;2022-08-01T10:28:57;25.30;99.90
40996;DHT22;26723;57.478;12.066;2022-08-01T10:32:13;25.30;99.90
40996;DHT22;26723;57.478;12.066;2022-08-01T10:35:26;24.90;99.90
40996;DHT22;26723;57.478;12.066;2022-08-01T10:38:57;25.10;99.90
40996;DHT22;26723;57.478;12.066;2022-08-01T10:42:10;24.10;99.90
40996;DHT22;26723;57.478;12.066;2022-08-01T10:45:22;24.70;99.90
40996;DHT22;26723;57.478;12.066;2022-08-01T10:48:42;24.90;99.90
40996;DHT22;26723;57.478;12.066;2022-08-01T10:51:58;24.80;99.90
40996;DHT22;26723;57.478;12.066;2022-08-01T10:55:09;24.70;99.90
40996;DHT22;26723;57.478;12.066;2022-08-01T10:58:24;24.50;99.90
40996;DHT22;26723;57.478;12.066;2022-08-01T11:01:37;24.20;99.90
40996;DHT22;26723;57.478;12.066;2022-08-01T11:04:55;23.90;99.90
40996;DHT22;26723;57.478;12.066;2022-08-01T11:08:09;23.50;99.90
40996;DHT22;26723;57.478;12.066;2022-08-01T11:11:58;23.50;99.90
40996;DHT22;26723;57.478;12.066;2022-08-01T11:15:22;23.60;99.90
40996;DHT22;26723;57.478;12.066;2022-08-01T11:18:57;23.40;99.90
40996;DHT22;26723;57.478;12.066;2022-08-01T11:22:07;22.90;99.90
40996;DHT22;26723;57.478;12.066;2022-08-01T11:25:25;22.40;99.90
40996;DHT22;26723;57.478;12.066;2022-08-01T11:29:15;22.20;99.90
40996;DHT22;26723;57.478;12.066;2022-08-01T11:32:29;22.20;99.90
40996;DHT22;26723;57.478;12.066;2022-08-01T11:36:19;22.80;99.90
40996;DHT22;26723;57.478;12.066;2022-08-01T11:40:16;23.40;99.90
40996;DHT22;26723;57.478;12.066;2022-08-01T11:43:28;23.20;99.90
40996;DHT22;26723;57.478;12.066;2022-08-01T11:47:07;23.00;99.90
40996;DHT22;26723;57.478;12.066;2022-08-01T11:50:31;23.10;99.90
40996;DHT22;26723;57.478;12.066;2022-08-01T11:53:45;22.80;99.90
40996;DHT22;26723;57.478;12.066;2022-08-01T11:57:02;22.80;99.90
40996;DHT22;26723;57.478;12.066;2022-08-01T12:00:14;22.60;99.90
40996;DHT22;26723;57.478;12.066;2022-08-01T12:03:30;22.50;99.90
40996;DHT22;26723;57.478;12.066;2022-08-01T12:06:44;22.80;99.90
40996;DHT22;26723;57.478;12.066;2022-08-01T12:10:02;22.90;99.90
40996;DHT22;26723;57.478;12.066;2022-08-01T12:13:21;22.70;99.90
40996;DHT22;26723;57.478;12.066;2022-08-01T12:16:33;22.30;99.90
40996;DHT22;26723;57.478;12.066;2022-08-01T12:19:50;22.20;99.90
40996;DHT22;26723;57.478;12.066;2022-08-01T12:23:04;22.10;99.90
40996;DHT22;26723;57.478;12.066;2022-08-01T12:26:14;21.80;99.90
40996;DHT22;26723;57.478;12.066;2022-08-01T12:29:43;21.90;99.90
40996;DHT22;26723;57.478;12.066;2022-08-01T12:32:53;22.00;99.90
40996;DHT22;26723;57.478;12.066;2022-08-01T12:36:04;22.00;99.90
40996;DHT22;26723;57.478;12.066;2022-08-01T12:39:16;21.80;99.90
40996;DHT22;26723;57.478;12.066;2022-08-01T12:42:25;21.70;99.90
40996;DHT22;26723;57.478;12.066;2022-08-01T12:46:01;21.80;99.90
40996;DHT22;26723;57.478;12.066;2022-08-01T12:49:12;21.80;99.90
40996;DHT22;26723;57.478;12.066;2022-08-01T12:53:49;21.60;99.90
40996;DHT22;26723;57.478;12.066;2022-08-01T13:00:19;21.60;99.90
40996;DHT22;26723;57.478;12.066;2022-08-01T13:03:57;21.60;99.90
40996;DHT22;26723;57.478;12.066;2022-08-01T13:11:38;21.50;99.90
40996;DHT22;26723;57.478;12.066;2022-08-01T13:15:31;21.50;99.90
40996;DHT22;26723;57.478;12.066;2022-08-01T13:19:01;21.30;99.90
40996;DHT22;26723;57.478;12.066;2022-08-01T13:22:17;21.30;99.90
40996;DHT22;26723;57.478;12.066;2022-08-01T13:25:26;21.20;99.90
40996;DHT22;26723;57.478;12.066;2022-08-01T13:28:37;21.10;99.90
40996;DHT22;26723;57.478;12.066;2022-08-01T13:31:51;21.30;99.90
40996;DHT22;26723;57.478;12.066;2022-08-01T13:35:04;21.30;99.90
40996;DHT22;26723;57.478;12.066;2022-08-01T13:38:15;21.20;99.90
40996;DHT22;26723;57.478;12.066;2022-08-01T13:41:50;21.10;99.90
40996;DHT22;26723;57.478;12.066;2022-08-01T13:45:01;21.10;99.90
40996;DHT22;26723;57.478;12.066;2022-08-01T13:48:20;21.30;99.90
40996;DHT22;26723;57.478;12.066;2022-08-01T13:51:30;21.20;99.90
40996;DHT22;26723;57.478;12.066;2022-08-01T13:54:43;21.10;99.90
40996;DHT22;26723;57.478;12.066;2022-08-01T13:57:51;21.00;99.90
40996;DHT22;26723;57.478;12.066;2022-08-01T14:01:02;21.00;99.90
40996;DHT22;26723;57.478;12.066;2022-08-01T14:04:12;21.10;99.90
40996;DHT22;26723;57.478;12.066;2022-08-01T14:07:23;21.10;99.90
40996;DHT22;26723;57.478;12.066;2022-08-01T14:10:34;21.00;99.90
40996;DHT22;26723;57.478;12.066;2022-08-01T14:13:46;20.90;99.90
40996;DHT22;26723;57.478;12.066;2022-08-01T14:17:00;21.00;99.90
40996;DHT22;26723;57.478;12.066;2022-08-01T14:20:12;21.00;99.90
40996;DHT22;26723;57.478;12.066;2022-08-01T14:23:24;21.00;99.90
40996;DHT22;26723;57.478;12.066;2022-08-01T14:26:36;20.80;99.90
40996;DHT22;26723;57.478;12.066;2022-08-01T14:29:50;20.90;99.90
40996;DHT22;26723;57.478;12.066;2022-08-01T14:33:22;20.90;99.90
40996;DHT22;26723;57.478;12.066;2022-08-01T14:36:32;21.00;99.90
40996;DHT22;26723;57.478;12.066;2022-08-01T14:39:52;20.80;99.90
40996;DHT22;26723;57.478;12.066;2022-08-01T14:43:01;20.80;99.90
40996;DHT22;26723;57.478;12.066;2022-08-01T14:46:30;20.90;99.90
40996;DHT22;26723;57.478;12.066;2022-08-01T14:50:23;21.10;99.90
40996;DHT22;26723;57.478;12.066;2022-08-01T14:53:41;20.90;99.90
40996;DHT22;26723;57.478;12.066;2022-08-01T14:57:02;20.70;99.90
40996;DHT22;26723;57.478;12.066;2022-08-01T15:00:23;20.80;99.90
40996;DHT22;26723;57.478;12.066;2022-08-01T15:03:41;20.80;99.90
40996;DHT22;26723;57.478;12.066;2022-08-01T15:07:36;20.60;99.90
40996;DHT22;26723;57.478;12.066;2022-08-01T15:11:02;20.30;99.90
40996;DHT22;26723;57.478;12.066;2022-08-01T15:14:14;20.30;99.90
40996;DHT22;26723;57.478;12.066;2022-08-01T15:17:41;20.20;99.90
40996;DHT22;26723;57.478;12.066;2022-08-01T15:20:55;20.30;99.90
40996;DHT22;26723;57.478;12.066;2022-08-01T15:24:10;20.40;99.90
40996;DHT22;26723;57.478;12.066;2022-08-01T15:27:29;20.20;99.90
40996;DHT22;26723;57.478;12.066;2022-08-01T15:30:42;20.30;99.90
40996;DHT22;26723;57.478;12.066;2022-08-01T15:34:21;20.30;99.90
40996;DHT22;26723;57.478;12.066;2022-08-01T15:37:32;20.30;99.90
40996;DHT22;26723;57.478;12.066;2022-08-01T15:40:54;20.20;99.90
40996;DHT22;26723;57.478;12.066;2022-08-01T15:44:13;20.20;99.90
40996;DHT22;26723;57.478;12.066;2022-08-01T15:47:27;20.20;99.90
40996;DHT22;26723;57.478;12.066;2022-08-01T15:50:41;20.10;99.90
40996;DHT22;26723;57.478;12.066;2022-08-01T15:54:12;20.10;99.90
40996;DHT22;26723;57.478;12.066;2022-08-01T15:57:23;20.00;99.90
40996;DHT22;26723;57.478;12.066;2022-08-01T16:00:31;20.10;99.90
40996;DHT22;26723;57.478;12.066;2022-08-01T16:03:45;20.00;99.90
40996;DHT22;26723;57.478;12.066;2022-08-01T16:06:54;20.00;99.90
40996;DHT22;26723;57.478;12.066;2022-08-01T16:10:04;20.00;99.90
40996;DHT22;26723;57.478;12.066;2022-08-01T16:13:14;20.10;99.90
40996;DHT22;26723;57.478;12.066;2022-08-01T16:16:23;20.00;99.90
40996;DHT22;26723;57.478;12.066;2022-08-01T16:19:32;20.00;99.90
40996;DHT22;26723;57.478;12.066;2022-08-01T16:22:41;20.00;99.90
40996;DHT22;26723;57.478;12.066;2022-08-01T16:25:50;19.80;99.90
40996;DHT22;26723;57.478;12.066;2022-08-01T16:29:00;19.70;99.90
40996;DHT22;26723;57.478;12.066;2022-08-01T16:32:12;19.80;99.90
40996;DHT22;26723;57.478;12.066;2022-08-01T16:35:37;19.50;99.90
40996;DHT22;26723;57.478;12.066;2022-08-01T16:38:49;19.50;99.90
40996;DHT22;26723;57.478;12.066;2022-08-01T16:41:59;19.60;99.90
40996;DHT22;26723;57.478;12.066;2022-08-01T16:45:16;19.70;99.90
40996;DHT22;26723;57.478;12.066;2022-08-01T16:48:27;19.70;99.90
40996;DHT22;26723;57.478;12.066;2022-08-01T16:51:36;19.70;99.90
40996;DHT22;26723;57.478;12.066;2022-08-01T16:54:54;19.60;99.90
40996;DHT22;26723;57.478;12.066;2022-08-01T16:58:03;19.70;99.90
40996;DHT22;26723;57.478;12.066;2022-08-01T17:01:19;19.60;99.90
40996;DHT22;26723;57.478;12.066;2022-08-01T17:04:50;19.60;99.90
40996;DHT22;26723;57.478;12.066;2022-08-01T17:07:58;19.40;99.90
40996;DHT22;26723;57.478;12.066;2022-08-01T17:11:07;19.40;99.90
40996;DHT22;26723;57.478;12.066;2022-08-01T17:14:15;19.30;99.90
40996;DHT22;26723;57.478;12.066;2022-08-01T17:17:27;19.40;99.90
40996;DHT22;26723;57.478;12.066;2022-08-01T17:20:35;19.20;99.90
40996;DHT22;26723;57.478;12.066;2022-08-01T17:23:44;19.20;99.90
40996;DHT22;26723;57.478;12.066;2022-08-01T17:26:52;19.30;99.90
40996;DHT22;26723;57.478;12.066;2022-08-01T17:30:01;19.20;99.90
40996;DHT22;26723;57.478;12.066;2022-08-01T17:33:11;19.20;99.90
40996;DHT22;26723;57.478;12.066;2022-08-01T17:36:19;19.10;99.90
40996;DHT22;26723;57.478;12.066;2022-08-01T17:39:28;19.00;99.90
40996;DHT22;26723;57.478;12.066;2022-08-01T17:42:45;19.10;99.90
40996;DHT22;26723;57.478;12.066;2022-08-01T17:45:56;19.00;99.90
40996;DHT22;26723;57.478;12.066;2022-08-01T17:49:21;19.00;99.90
40996;DHT22;26723;57.478;12.066;2022-08-01T17:52:51;18.90;99.90
40996;DHT22;26723;57.478;12.066;2022-08-01T17:56:00;18.90;99.90
40996;DHT22;26723;57.478;12.066;2022-08-01T17:59:12;18.90;99.90
40996;DHT22;26723;57.478;12.066;2022-08-01T18:02:21;18.90;99.90
40996;DHT22;26723;57.478;12.066;2022-08-01T18:05:31;18.80;99.90
40996;DHT22;26723;57.478;12.066;2022-08-01T18:08:43;18.80;99.90
40996;DHT22;26723;57.478;12.066;2022-08-01T18:11:53;18.70;99.90
40996;DHT22;26723;57.478;12.066;2022-08-01T18:15:18;18.70;99.90
40996;DHT22;26723;57.478;12.066;2022-08-01T18:18:34;18.60;99.90
40996;DHT22;26723;57.478;12.066;2022-08-01T18:21:54;18.60;99.90
40996;DHT22;26723;57.478;12.066;2022-08-01T18:25:05;18.60;99.90
40996;DHT22;26723;57.478;12.066;2022-08-01T18:28:17;18.60;99.90
40996;DHT22;26723;57.478;12.066;2022-08-01T18:31:39;18.50;99.90
40996;DHT22;26723;57.478;12.066;2022-08-01T18:34:48;18.50;99.90
40996;DHT22;26723;57.478;12.066;2022-08-01T18:37:58;18.40;99.90
40996;DHT22;26723;57.478;12.066;2022-08-01T18:41:08;18.30;99.90
40996;DHT22;26723;57.478;12.066;2022-08-01T18:44:17;18.30;99.90
40996;DHT22;26723;57.478;12.066;2022-08-01T18:47:25;18.30;99.90
40996;DHT22;26723;57.478;12.066;2022-08-01T18:50:34;18.20;99.90
40996;DHT22;26723;57.478;12.066;2022-08-01T18:53:44;18.10;99.90
40996;DHT22;26723;57.478;12.066;2022-08-01T18:56:53;18.10;99.90
40996;DHT22;26723;57.478;12.066;2022-08-01T19:00:05;18.00;99.90
40996;DHT22;26723;57.478;12.066;2022-08-01T19:03:22;17.90;99.90
40996;DHT22;26723;57.478;12.066;2022-08-01T19:06:41;17.90;99.90
40996;DHT22;26723;57.478;12.066;2022-08-01T19:09:55;17.80;99.90
40996;DHT22;26723;57.478;12.066;2022-08-01T19:13:10;17.80;99.90
40996;DHT22;26723;57.478;12.066;2022-08-01T19:16:22;17.70;99.90
40996;DHT22;26723;57.478;12.066;2022-08-01T19:19:39;17.60;99.90
40996;DHT22;26723;57.478;12.066;2022-08-01T19:22:56;17.60;99.90
40996;DHT22;26723;57.478;12.066;2022-08-01T19:26:08;17.50;99.90
40996;DHT22;26723;57.478;12.066;2022-08-01T19:29:23;17.40;99.90
40996;DHT22;26723;57.478;12.066;2022-08-01T19:32:45;17.30;99.90
40996;DHT22;26723;57.478;12.066;2022-08-01T19:36:12;17.30;99.90
40996;DHT22;26723;57.478;12.066;2022-08-01T19:39:32;17.30;99.90
40996;DHT22;26723;57.478;12.066;2022-08-01T19:42:43;17.20;99.90
40996;DHT22;26723;57.478;12.066;2022-08-01T19:45:53;17.10;99.90
40996;DHT22;26723;57.478;12.066;2022-08-01T19:49:03;17.10;99.90
40996;DHT22;26723;57.478;12.066;2022-08-01T19:52:14;17.10;99.90
40996;DHT22;26723;57.478;12.066;2022-08-01T19:55:33;17.00;99.90
40996;DHT22;26723;57.478;12.066;2022-08-01T19:58:50;17.00;99.90
40996;DHT22;26723;57.478;12.066;2022-08-01T20:02:09;16.90;99.90
40996;DHT22;26723;57.478;12.066;2022-08-01T20:05:24;16.90;99.90
40996;DHT22;26723;57.478;12.066;2022-08-01T20:08:37;16.90;99.90
40996;DHT22;26723;57.478;12.066;2022-08-01T20:11:51;16.90;99.90
40996;DHT22;26723;57.478;12.066;2022-08-01T20:15:02;16.90;99.90
40996;DHT22;26723;57.478;12.066;2022-08-01T20:18:11;16.90;99.90
40996;DHT22;26723;57.478;12.066;2022-08-01T20:21:22;16.80;99.90
40996;DHT22;26723;57.478;12.066;2022-08-01T20:24:37;16.80;99.90
40996;DHT22;26723;57.478;12.066;2022-08-01T20:27:52;16.70;99.90
40996;DHT22;26723;57.478;12.066;2022-08-01T20:31:07;16.60;99.90
40996;DHT22;26723;57.478;12.066;2022-08-01T20:34:19;16.60;99.90
40996;DHT22;26723;57.478;12.066;2022-08-01T20:37:33;16.50;99.90
40996;DHT22;26723;57.478;12.066;2022-08-01T20:41:04;16.60;99.90
40996;DHT22;26723;57.478;12.066;2022-08-01T20:44:14;16.50;99.90
40996;DHT22;26723;57.478;12.066;2022-08-01T20:47:24;16.50;99.90
40996;DHT22;26723;57.478;12.066;2022-08-01T20:50:36;16.50;99.90
40996;DHT22;26723;57.478;12.066;2022-08-01T20:54:02;16.50;99.90
40996;DHT22;26723;57.478;12.066;2022-08-01T20:57:20;16.40;99.90
40996;DHT22;26723;57.478;12.066;2022-08-01T21:00:32;16.40;99.90
40996;DHT22;26723;57.478;12.066;2022-08-01T21:04:01;16.40;99.90
40996;DHT22;26723;57.478;12.066;2022-08-01T21:07:21;16.40;99.90
40996;DHT22;26723;57.478;12.066;2022-08-01T21:10:31;16.40;99.90
40996;DHT22;26723;57.478;12.066;2022-08-01T21:13:43;16.30;99.90
40996;DHT22;26723;57.478;12.066;2022-08-01T21:17:04;16.30;99.90
40996;DHT22;26723;57.478;12.066;2022-08-01T21:20:21;16.30;99.90
40996;DHT22;26723;57.478;12.066;2022-08-01T21:23:42;16.30;99.90
40996;DHT22;26723;57.478;12.066;2022-08-01T21:27:04;16.30;99.90
40996;DHT22;26723;57.478;12.066;2022-08-01T21:30:30;16.20;99.90
40996;DHT22;26723;57.478;12.066;2022-08-01T21:33:48;16.30;99.90
40996;DHT22;26723;57.478;12.066;2022-08-01T21:37:15;16.30;99.90
40996;DHT22;26723;57.478;12.066;2022-08-01T21:40:37;16.20;99.90
40996;DHT22;26723;57.478;12.066;2022-08-01T21:44:00;16.20;99.90
40996;DHT22;26723;57.478;12.066;2022-08-01T21:47:16;16.10;99.90
40996;DHT22;26723;57.478;12.066;2022-08-01T21:50:25;16.20;99.90
40996;DHT22;26723;57.478;12.066;2022-08-01T21:53:45;16.20;99.90
40996;DHT22;26723;57.478;12.066;2022-08-01T21:57:09;16.10;99.90
40996;DHT22;26723;57.478;12.066;2022-08-01T22:00:22;16.10;99.90
40996;DHT22;26723;57.478;12.066;2022-08-01T22:03:44;16.10;99.90